Hubert, Texas
Current Conditions -  °F | °C
As of 5:35 PM on Wednesday 26 Nov 2014 (Local Time) from KRBO Reporting Station
Clear Clear  
Wind Chill: 68°   Ceiling: Unl
Heat Index: 68°   Visibility: 10mi
Dew Point: 40°   Wind: 7mph
Humidity: 36%   Direction: 190°S
Pressure: 30.22"   Gusts: NA
Location:  28.0654°N, 97.7489°W
Report Text: KRBO 262335Z AUTO 19006KT 10SM CLR 20/05 A3022 RMK AO2 T02010047
Loading
Personal Weather Stations






























Interactive Weather Map New forecast layout! Learn more

10-Day Weather Forecast

Advertisements
Track Severe Weather on mobile